Time;durP1;ratioP1;P1;durP2;ratioP2;P2;SDS_P1;SDS_P2;PMS_P1;PMS_P2;Temp;Humidity;BMP_temperature;BMP_pressure;BME280_temperature;BME280_humidity;BME280_pressure;Samples;Min_cycle;Max_cycle;Signal;HPM_P1;HPM_P2
2023/06/09 00:00:47;;;;;;;;;;;;;;;24.85;43.64;101604.00;5059060;28;19935;-72
2023/06/09 00:03:12;;;;;;;;;;;;;;;24.85;43.81;101614.88;5066143;28;19913;-72
2023/06/09 00:05:39;;;;;;;;;;;;;;;24.86;43.66;101615.72;5061662;28;19927;-73
2023/06/09 00:08:05;;;;;;;;;;;;;;;24.84;43.64;101605.00;5050614;28;19912;-72
2023/06/09 00:10:30;;;;;;;;;;;;;;;24.83;43.39;101606.06;5044605;28;19939;-72
2023/06/09 00:12:57;;;;;;;;;;;;;;;24.83;43.60;101613.38;5068656;28;19919;-72
2023/06/09 00:15:22;;;;;;;;;;;;;;;24.82;43.41;101608.97;5059543;28;20016;-72
2023/06/09 00:17:48;;;;;;;;;;;;;;;24.83;43.69;101600.63;5071694;28;19925;-72
2023/06/09 00:20:13;;;;;;;;;;;;;;;24.81;43.67;101601.84;5063999;28;19972;-73
2023/06/09 00:22:43;;;;;;;;;;;;;;;24.80;43.36;101601.00;5033588;28;20023;-72
2023/06/09 00:25:12;;;;;;;;;;;;;;;24.80;43.48;101594.72;5071584;28;19913;-72
2023/06/09 00:27:37;;;;;;;;;;;;;;;24.80;43.52;101597.44;5055595;28;19964;-72
2023/06/09 00:30:02;;;;;;;;;;;;;;;24.79;43.60;101593.88;5064500;28;19912;-73
2023/06/09 00:32:28;;;;;;;;;;;;;;;24.78;43.34;101596.78;5051215;28;19917;-72
2023/06/09 00:34:53;;;;;;;;;;;;;;;24.77;43.31;101593.22;5064468;28;20392;-72
2023/06/09 00:37:18;;;;;;;;;;;;;;;24.77;43.43;101604.13;5063361;28;19912;-72
2023/06/09 00:39:44;;;;;;;;;;;;;;;24.76;43.47;101596.97;5048912;28;19913;-72
2023/06/09 00:42:09;;;;;;;;;;;;;;;24.76;43.21;101596.13;5058832;28;19917;-72
2023/06/09 00:44:34;;;;;;;;;;;;;;;24.75;43.11;101589.84;5063023;28;20392;-72
2023/06/09 00:46:59;;;;;;;;;;;;;;;24.74;43.25;101596.31;5067474;28;19927;-73
2023/06/09 00:49:24;;;;;;;;;;;;;;;24.74;43.24;101599.03;5053240;28;19981;-72
2023/06/09 00:51:50;;;;;;;;;;;;;;;24.73;43.20;101599.25;5075765;28;19916;-72
2023/06/09 00:54:16;;;;;;;;;;;;;;;24.72;43.27;101594.81;5059946;28;19913;-72
2023/06/09 00:56:41;;;;;;;;;;;;;;;24.72;43.13;101602.97;5049915;28;19975;-72
2023/06/09 00:59:07;;;;;;;;;;;;;;;24.70;42.97;101592.31;5067680;28;19913;-72
2023/06/09 01:01:33;;;;;;;;;;;;;;;24.71;43.20;101596.69;5043656;28;20004;-72
2023/06/09 01:03:59;;;;;;;;;;;;;;;24.70;43.06;101592.31;5051331;28;19912;-72
2023/06/09 01:06:38;;;;;;;;;;;;;;;24.69;43.14;101585.19;5062139;28;19913;-72
2023/06/09 01:09:07;;;;;;;;;;;;;;;24.68;43.16;101587.06;5061320;28;19959;-72
2023/06/09 01:11:32;;;;;;;;;;;;;;;24.67;43.07;101593.50;5042898;28;19937;-73
2023/06/09 01:14:02;;;;;;;;;;;;;;;24.67;43.01;101595.38;5069612;28;19932;-72
2023/06/09 01:16:30;;;;;;;;;;;;;;;24.65;43.10;101582.00;5057976;28;19917;-72
2023/06/09 01:18:55;;;;;;;;;;;;;;;24.65;42.92;101592.88;5058276;28;19920;-72
2023/06/09 01:21:41;;;;;;;;;;;;;;;24.65;42.98;101583.88;5063708;28;19917;-72
2023/06/09 01:24:23;;;;;;;;;;;;;;;24.64;42.75;101593.06;5064372;28;19919;-72
2023/06/09 01:26:50;;;;;;;;;;;;;;;24.64;43.02;101599.34;5048458;28;19913;-72
2023/06/09 01:29:15;;;;;;;;;;;;;;;24.63;42.71;101594.09;5062528;28;19917;-72
2023/06/09 01:31:40;;;;;;;;;;;;;;;24.63;43.02;101599.53;5050396;28;19959;-72
2023/06/09 01:34:06;;;;;;;;;;;;;;;24.62;42.85;101598.69;5038299;28;19962;-72
2023/06/09 01:36:31;;;;;;;;;;;;;;;24.61;42.79;101591.56;5046053;28;19917;-72
2023/06/09 01:38:56;;;;;;;;;;;;;;;24.61;42.91;101591.56;5045929;28;19936;-72
2023/06/09 01:41:21;;;;;;;;;;;;;;;24.61;42.98;101586.13;5071257;28;19921;-72
2023/06/09 01:43:47;;;;;;;;;;;;;;;24.60;42.82;101584.44;5055319;28;19936;-72
2023/06/09 01:46:12;;;;;;;;;;;;;;;24.59;42.62;101588.19;5076100;28;19963;-72
2023/06/09 01:48:49;;;;;;;;;;;;;;;24.61;42.70;101577.13;5042095;28;20412;-72
2023/06/09 01:51:16;;;;;;;;;;;;;;;24.59;42.71;101585.47;5069168;28;19920;-72
2023/06/09 01:53:41;;;;;;;;;;;;;;;24.59;42.69;101581.91;5068127;28;19913;-71
2023/06/09 01:56:25;;;;;;;;;;;;;;;24.58;42.77;101575.63;5060381;28;19927;-71
2023/06/09 01:58:51;;;;;;;;;;;;;;;24.58;42.67;101575.63;5051336;28;19917;-72
2023/06/09 02:01:17;;;;;;;;;;;;;;;24.57;42.72;101571.22;5047684;28;19920;-72
2023/06/09 02:03:42;;;;;;;;;;;;;;;24.57;42.54;101576.66;5062395;28;19917;-72
2023/06/09 02:06:08;;;;;;;;;;;;;;;24.56;42.42;101575.00;5046550;28;20381;-71
2023/06/09 02:08:33;;;;;;;;;;;;;;;24.55;42.54;101572.44;5070429;28;19912;-71
2023/06/09 02:10:58;;;;;;;;;;;;;;;24.55;42.70;101567.00;5038861;28;19917;-71
2023/06/09 02:13:24;;;;;;;;;;;;;;;24.55;42.46;101569.72;5073303;28;20370;-71
2023/06/09 02:15:49;;;;;;;;;;;;;;;24.54;42.46;101559.88;5045121;28;19940;-71
2023/06/09 02:18:15;;;;;;;;;;;;;;;24.53;42.65;101553.59;5065770;28;19920;-72
2023/06/09 02:20:42;;;;;;;;;;;;;;;24.53;42.59;101560.94;5071654;28;19917;-71
2023/06/09 02:23:07;;;;;;;;;;;;;;;24.51;42.61;101561.13;5059372;28;19913;-72
2023/06/09 02:25:32;;;;;;;;;;;;;;;24.49;42.49;101560.47;5066769;28;19919;-72
2023/06/09 02:28:02;;;;;;;;;;;;;;;24.49;42.48;101565.91;5044375;28;19916;-72
2023/06/09 02:30:27;;;;;;;;;;;;;;;24.48;42.71;101555.22;5053555;28;19924;-71
2023/06/09 02:32:53;;;;;;;;;;;;;;;24.46;42.62;101560.00;5063009;28;20304;-71
2023/06/09 02:35:18;;;;;;;;;;;;;;;24.45;42.67;101559.16;5069906;28;19917;-71
2023/06/09 02:37:43;;;;;;;;;;;;;;;24.44;42.27;101562.91;5039664;28;20004;-71
2023/06/09 02:40:09;;;;;;;;;;;;;;;24.42;42.71;101557.69;5070116;28;19919;-71
2023/06/09 02:42:34;;;;;;;;;;;;;;;24.42;42.46;101549.53;5066719;28;19939;-72
2023/06/09 02:44:59;;;;;;;;;;;;;;;24.40;42.51;101551.56;5055547;28;19931;-72
2023/06/09 02:47:24;;;;;;;;;;;;;;;24.40;42.44;101557.00;5072703;28;19912;-71
2023/06/09 02:49:50;;;;;;;;;;;;;;;24.39;42.40;101555.31;5060047;28;19951;-72
2023/06/09 02:52:15;;;;;;;;;;;;;;;24.38;42.58;101553.66;5069057;28;19920;-72
2023/06/09 02:54:40;;;;;;;;;;;;;;;24.38;42.42;101552.78;5066147;28;19935;-72
2023/06/09 02:57:07;;;;;;;;;;;;;;;24.38;42.53;101552.78;5064230;28;19940;-71
2023/06/09 02:59:32;;;;;;;;;;;;;;;24.37;42.43;101553.78;5063727;28;19940;-72
2023/06/09 03:01:57;;;;;;;;;;;;;;;24.36;42.47;101557.53;5066161;28;20289;-72
2023/06/09 03:04:23;;;;;;;;;;;;;;;24.35;42.37;101550.44;5061836;28;20382;-72
2023/06/09 03:06:49;;;;;;;;;;;;;;;24.35;42.62;101556.72;5066340;28;19934;-72
2023/06/09 03:09:15;;;;;;;;;;;;;;;24.35;42.24;101564.03;5056449;28;19916;-72
2023/06/09 03:11:40;;;;;;;;;;;;;;;24.35;42.30;101559.41;5036491;28;19967;-72
2023/06/09 03:14:07;;;;;;;;;;;;;;;24.35;42.53;101561.31;5059974;28;19921;-71
2023/06/09 03:16:32;;;;;;;;;;;;;;;24.34;42.55;101567.75;5051451;28;19967;-71
2023/06/09 03:18:57;;;;;;;;;;;;;;;24.33;42.33;101571.50;5040976;28;19917;-71
2023/06/09 03:21:24;;;;;;;;;;;;;;;24.32;42.23;101565.22;5069650;28;19928;-71
2023/06/09 03:23:49;;;;;;;;;;;;;;;24.31;42.17;101560.84;5061072;28;19920;-71
2023/06/09 03:26:15;;;;;;;;;;;;;;;24.31;42.15;101568.97;5065404;28;20006;-71
2023/06/09 03:28:40;;;;;;;;;;;;;;;24.31;42.29;101571.69;5064450;28;19930;-72
2023/06/09 03:31:06;;;;;;;;;;;;;;;24.30;42.18;101555.56;5047256;28;19920;-72
2023/06/09 03:33:31;;;;;;;;;;;;;;;24.30;42.36;101559.16;5059251;28;19913;-72
2023/06/09 03:35:56;;;;;;;;;;;;;;;24.31;42.42;101566.28;5070886;28;19917;-72
2023/06/09 03:38:21;;;;;;;;;;;;;;;24.30;42.18;101571.88;5055766;28;20390;-71
2023/06/09 03:40:47;;;;;;;;;;;;;;;24.28;42.20;101557.66;5063716;28;20443;-72
2023/06/09 03:43:12;;;;;;;;;;;;;;;24.28;42.11;101558.47;5065167;28;19917;-72
2023/06/09 03:45:37;;;;;;;;;;;;;;;24.28;42.04;101557.66;5058033;28;20397;-72
2023/06/09 03:48:04;;;;;;;;;;;;;;;24.27;42.08;101564.97;5072149;28;19916;-72
2023/06/09 03:50:29;;;;;;;;;;;;;;;24.27;42.39;101555.97;5061488;28;19914;-72
2023/06/09 03:52:54;;;;;;;;;;;;;;;24.26;42.06;101563.28;5044621;28;19919;-72
2023/06/09 03:55:22;;;;;;;;;;;;;;;24.26;42.11;101557.00;5063898;28;19967;-72
2023/06/09 03:57:47;;;;;;;;;;;;;;;24.26;42.22;101557.00;5066021;28;19913;-72
2023/06/09 04:00:13;;;;;;;;;;;;;;;24.26;42.03;101555.13;5044248;28;19921;-71
2023/06/09 04:02:38;;;;;;;;;;;;;;;24.24;42.21;101549.03;5067374;28;19913;-71
2023/06/09 04:05:04;;;;;;;;;;;;;;;24.24;42.12;101554.47;5060521;28;19970;-72
2023/06/09 04:07:30;;;;;;;;;;;;;;;24.24;42.31;101554.47;5063346;28;19916;-72
2023/06/09 04:09:55;;;;;;;;;;;;;;;24.23;42.31;101560.09;5068274;28;19920;-73
2023/06/09 04:12:20;;;;;;;;;;;;;;;24.23;42.00;101555.50;5054034;28;20011;-72
2023/06/09 04:14:45;;;;;;;;;;;;;;;24.23;42.12;101557.38;5069571;28;19960;-72
2023/06/09 04:17:11;;;;;;;;;;;;;;;24.22;42.04;101552.97;5059434;28;19924;-72
2023/06/09 04:19:36;;;;;;;;;;;;;;;24.22;42.16;101558.41;5042562;28;19918;-72
2023/06/09 04:22:05;;;;;;;;;;;;;;;24.22;41.89;101556.53;5053565;28;20007;-72
2023/06/09 04:24:30;;;;;;;;;;;;;;;24.21;42.10;101560.25;5063856;28;19996;-72
2023/06/09 04:26:55;;;;;;;;;;;;;;;24.20;42.06;101567.56;5058864;28;19912;-71
2023/06/09 04:29:22;;;;;;;;;;;;;;;24.20;42.03;101572.16;5066973;28;19928;-72
2023/06/09 04:31:48;;;;;;;;;;;;;;;24.19;42.05;101567.78;5052053;28;19935;-72
2023/06/09 04:34:15;;;;;;;;;;;;;;;24.18;42.15;101572.38;5039301;28;20172;-71
2023/06/09 04:36:41;;;;;;;;;;;;;;;24.18;42.18;101566.09;5070133;28;19917;-72
2023/06/09 04:39:07;;;;;;;;;;;;;;;24.17;42.12;101570.69;5054045;28;20015;-72
2023/06/09 04:41:32;;;;;;;;;;;;;;;24.17;41.97;101567.97;5037716;28;19991;-72
2023/06/09 04:44:03;;;;;;;;;;;;;;;24.16;42.03;101568.97;5050485;28;19998;-72
2023/06/09 04:46:28;;;;;;;;;;;;;;;24.17;42.19;101567.09;5064458;28;19917;-72
2023/06/09 04:48:54;;;;;;;;;;;;;;;24.16;42.12;101563.53;5072833;28;19913;-72
2023/06/09 04:51:19;;;;;;;;;;;;;;;24.16;41.90;101570.84;5067685;28;19912;-72
2023/06/09 04:53:45;;;;;;;;;;;;;;;24.16;41.99;101565.41;5064393;28;20322;-72
2023/06/09 04:56:15;;;;;;;;;;;;;;;24.15;42.13;101564.56;5068587;28;19917;-72
2023/06/09 04:58:41;;;;;;;;;;;;;;;24.15;42.05;101564.56;5055694;28;19927;-72
2023/06/09 05:01:06;;;;;;;;;;;;;;;24.14;42.09;101564.78;5058703;28;19972;-72
2023/06/09 05:03:31;;;;;;;;;;;;;;;24.13;41.93;101566.66;5074375;28;19923;-72
2023/06/09 05:05:56;;;;;;;;;;;;;;;24.12;41.90;101564.94;5061125;28;19913;-72
2023/06/09 05:08:21;;;;;;;;;;;;;;;24.11;42.10;101563.25;5069205;28;19913;-72
2023/06/09 05:10:46;;;;;;;;;;;;;;;24.11;42.04;101560.56;5069317;28;19918;-72
2023/06/09 05:13:12;;;;;;;;;;;;;;;24.11;42.16;101562.44;5061206;28;20369;-72
2023/06/09 05:15:37;;;;;;;;;;;;;;;24.11;42.28;101567.84;5071946;28;19921;-72
2023/06/09 05:18:02;;;;;;;;;;;;;;;24.10;42.11;101568.91;5062831;28;19914;-72
2023/06/09 05:20:27;;;;;;;;;;;;;;;24.11;42.19;101567.84;5063777;28;19917;-72
2023/06/09 05:22:52;;;;;;;;;;;;;;;24.08;42.20;101566.34;5052353;28;19935;-72
2023/06/09 05:25:19;;;;;;;;;;;;;;;24.09;42.08;101578.09;5070263;28;19917;-72
2023/06/09 05:27:44;;;;;;;;;;;;;;;24.08;42.25;101571.78;5061030;28;19916;-72
2023/06/09 05:30:09;;;;;;;;;;;;;;;24.08;42.11;101570.94;5073156;28;19922;-73
2023/06/09 05:32:35;;;;;;;;;;;;;;;24.07;42.35;101575.53;5064285;28;19916;-72
2023/06/09 05:35:03;;;;;;;;;;;;;;;24.06;42.20;101582.00;5060302;28;19924;-72
2023/06/09 05:37:28;;;;;;;;;;;;;;;24.07;42.17;101585.56;5072749;28;19920;-71
2023/06/09 05:39:53;;;;;;;;;;;;;;;24.06;42.06;101582.00;5057180;28;19913;-71
2023/06/09 05:42:19;;;;;;;;;;;;;;;24.05;42.07;101582.19;5072082;28;19974;-72
2023/06/09 05:44:44;;;;;;;;;;;;;;;24.05;42.37;101584.91;5052469;28;19941;-71
2023/06/09 05:47:09;;;;;;;;;;;;;;;24.05;42.24;101587.63;5065050;28;19919;-71
2023/06/09 05:49:34;;;;;;;;;;;;;;;24.04;42.28;101584.06;5067554;28;19916;-71
2023/06/09 05:51:59;;;;;;;;;;;;;;;24.04;42.03;101588.66;5067089;28;19936;-71
2023/06/09 05:54:26;;;;;;;;;;;;;;;24.02;42.05;101583.41;5061033;28;19913;-72
2023/06/09 05:56:53;;;;;;;;;;;;;;;24.02;42.23;101583.41;5051644;28;19921;-72
2023/06/09 05:59:20;;;;;;;;;;;;;;;24.02;42.14;101582.56;5066959;28;20000;-72
2023/06/09 06:01:46;;;;;;;;;;;;;;;24.01;42.23;101584.44;5059248;28;20374;-71
2023/06/09 06:04:11;;;;;;;;;;;;;;;24.00;42.26;101580.06;5074683;28;19920;-71
2023/06/09 06:06:37;;;;;;;;;;;;;;;24.00;42.32;101577.34;5038993;28;19920;-71
2023/06/09 06:09:03;;;;;;;;;;;;;;;23.99;42.11;101583.78;5067125;28;19935;-72
2023/06/09 06:11:28;;;;;;;;;;;;;;;23.99;42.30;101575.63;5067505;28;19913;-72
2023/06/09 06:13:53;;;;;;;;;;;;;;;23.99;42.42;101580.22;5063283;28;19928;-72
2023/06/09 06:16:18;;;;;;;;;;;;;;;23.97;42.21;101580.41;5068852;28;19927;-72
2023/06/09 06:18:44;;;;;;;;;;;;;;;23.98;42.47;101582.09;5064082;28;19976;-73
2023/06/09 06:21:11;;;;;;;;;;;;;;;23.98;42.30;101576.66;5063022;28;19992;-72
2023/06/09 06:23:36;;;;;;;;;;;;;;;23.97;42.36;101582.28;5063267;28;19917;-72
2023/06/09 06:26:01;;;;;;;;;;;;;;;23.96;42.36;101584.16;5071297;28;20019;-72
2023/06/09 06:28:28;;;;;;;;;;;;;;;23.96;42.25;101584.16;5055182;28;19913;-72
2023/06/09 06:30:53;;;;;;;;;;;;;;;23.95;42.66;101579.75;5078307;28;19920;-72
2023/06/09 06:33:18;;;;;;;;;;;;;;;23.95;42.43;101580.59;5062185;28;19913;-72
2023/06/09 06:35:43;;;;;;;;;;;;;;;23.95;42.57;101577.88;5065648;28;19917;-72
2023/06/09 06:38:09;;;;;;;;;;;;;;;23.95;42.49;101574.31;5070564;28;19963;-72
2023/06/09 06:40:34;;;;;;;;;;;;;;;23.95;42.39;101571.59;5059428;28;19923;-72
2023/06/09 06:42:59;;;;;;;;;;;;;;;23.94;42.60;101572.63;5065103;28;19917;-72
2023/06/09 06:45:26;;;;;;;;;;;;;;;23.95;42.38;101572.44;5062297;28;19975;-72
2023/06/09 06:47:52;;;;;;;;;;;;;;;23.95;42.57;101575.16;5066170;28;19927;-72
2023/06/09 06:50:18;;;;;;;;;;;;;;;23.95;42.60;101583.28;5065741;28;19917;-72
2023/06/09 06:52:43;;;;;;;;;;;;;;;23.95;42.57;101577.88;5054673;28;19959;-71
2023/06/09 06:55:08;;;;;;;;;;;;;;;23.96;42.46;101581.44;5057764;28;19917;-71
2023/06/09 06:57:34;;;;;;;;;;;;;;;23.97;42.40;101585.00;5071841;28;20006;-71
2023/06/09 07:00:00;;;;;;;;;;;;;;;23.97;42.51;101582.28;5064399;28;19913;-72
2023/06/09 07:02:25;;;;;;;;;;;;;;;23.97;42.50;101574.13;5054013;28;19927;-72
2023/06/09 07:04:50;;;;;;;;;;;;;;;23.96;42.35;101576.03;5073081;28;20004;-71
2023/06/09 07:07:16;;;;;;;;;;;;;;;23.95;42.37;101579.75;5057843;28;19917;-72
2023/06/09 07:09:41;;;;;;;;;;;;;;;23.95;42.50;101568.88;5048619;28;20251;-72
2023/06/09 07:12:06;;;;;;;;;;;;;;;23.95;42.39;101577.88;5065548;28;19913;-72
2023/06/09 07:14:31;;;;;;;;;;;;;;;23.94;42.61;101578.06;5068505;28;19927;-72
2023/06/09 07:16:56;;;;;;;;;;;;;;;23.93;42.48;101570.94;5044230;28;19940;-72
2023/06/09 07:19:22;;;;;;;;;;;;;;;23.93;42.44;101576.38;5069394;28;19913;-71
2023/06/09 07:21:47;;;;;;;;;;;;;;;23.93;42.68;101577.22;5062203;28;20019;-71
2023/06/09 07:24:12;;;;;;;;;;;;;;;23.93;42.49;101570.94;5061010;28;19957;-72
2023/06/09 07:26:37;;;;;;;;;;;;;;;23.92;42.68;101569.28;5069690;28;19913;-71
2023/06/09 07:29:02;;;;;;;;;;;;;;;23.91;42.54;101568.41;5035029;28;19917;-72
2023/06/09 07:31:28;;;;;;;;;;;;;;;23.92;42.56;101574.69;5054876;28;20004;-72
2023/06/09 07:33:53;;;;;;;;;;;;;;;23.91;42.64;101584.69;5061232;28;19966;-72
2023/06/09 07:36:19;;;;;;;;;;;;;;;23.91;42.71;101571.13;5061028;28;19921;-72
2023/06/09 07:38:46;;;;;;;;;;;;;;;23.90;42.59;101574.88;5069081;28;19912;-71
2023/06/09 07:41:11;;;;;;;;;;;;;;;23.90;42.74;101574.88;5062827;28;20018;-71
2023/06/09 07:43:37;;;;;;;;;;;;;;;23.90;42.50;101576.75;5048160;28;19913;-72
2023/06/09 07:46:02;;;;;;;;;;;;;;;23.90;42.57;101574.03;5046703;28;19917;-72
2023/06/09 07:48:27;;;;;;;;;;;;;;;23.90;42.82;101574.88;5064921;28;19913;-72
2023/06/09 07:50:52;;;;;;;;;;;;;;;23.89;42.88;101569.63;5042873;28;19912;-72
2023/06/09 07:53:17;;;;;;;;;;;;;;;23.90;42.87;101565.88;5069331;28;20443;-72
2023/06/09 07:55:44;;;;;;;;;;;;;;;23.89;42.94;101556.06;5056064;28;19940;-72
2023/06/09 07:58:09;;;;;;;;;;;;;;;23.89;42.75;101558.78;5054730;28;19913;-72
2023/06/09 08:00:35;;;;;;;;;;;;;;;23.89;42.83;101570.47;5064535;28;19942;-72
2023/06/09 08:03:03;;;;;;;;;;;;;;;23.89;42.97;101564.19;5059447;28;19924;-71
2023/06/09 08:05:29;;;;;;;;;;;;;;;23.89;42.95;101561.50;5071236;28;19914;-72
2023/06/09 08:07:55;;;;;;;;;;;;;;;23.88;42.85;101563.38;5061612;28;19913;-72
2023/06/09 08:10:20;;;;;;;;;;;;;;;23.88;43.14;101557.09;5043993;28;19940;-72
2023/06/09 08:12:45;;;;;;;;;;;;;;;23.88;42.94;101563.38;5064946;28;19964;-72
2023/06/09 08:15:10;;;;;;;;;;;;;;;23.88;43.06;101560.66;5066293;28;19983;-72
2023/06/09 08:17:35;;;;;;;;;;;;;;;23.88;42.91;101560.66;5060635;28;20004;-72
2023/06/09 08:20:03;;;;;;;;;;;;;;;23.88;42.87;101560.66;5071405;28;19940;-72
2023/06/09 08:22:29;;;;;;;;;;;;;;;23.89;42.90;101558.78;5059363;28;19945;-72
2023/06/09 08:24:55;;;;;;;;;;;;;;;23.88;42.81;101560.66;5047325;28;19913;-71
2023/06/09 08:27:20;;;;;;;;;;;;;;;23.88;43.08;101557.94;5056419;28;20278;-72
2023/06/09 08:29:45;;;;;;;;;;;;;;;23.88;42.94;101547.06;5036703;28;19920;-72
2023/06/09 08:32:11;;;;;;;;;;;;;;;23.89;42.98;101556.91;5069069;28;19923;-72
2023/06/09 08:34:36;;;;;;;;;;;;;;;23.89;43.06;101556.06;5059430;28;19923;-72
2023/06/09 08:37:03;;;;;;;;;;;;;;;23.88;43.17;101549.78;5041772;28;19923;-72
2023/06/09 08:39:28;;;;;;;;;;;;;;;23.88;42.91;101541.63;5067025;28;19999;-72
2023/06/09 08:41:53;;;;;;;;;;;;;;;23.89;43.00;101542.47;5067422;28;20419;-72
2023/06/09 08:44:19;;;;;;;;;;;;;;;23.89;42.96;101553.34;5039641;28;19917;-72
2023/06/09 08:46:44;;;;;;;;;;;;;;;23.89;42.93;101545.19;5049120;28;19923;-72
2023/06/09 08:49:10;;;;;;;;;;;;;;;23.89;42.83;101543.31;5062050;28;19917;-72
2023/06/09 08:51:37;;;;;;;;;;;;;;;23.90;43.12;101541.44;5061729;28;19923;-72
2023/06/09 08:54:02;;;;;;;;;;;;;;;23.89;42.88;101539.75;5070340;28;19920;-72
2023/06/09 08:56:27;;;;;;;;;;;;;;;23.90;42.84;101541.44;5048639;28;19917;-72
2023/06/09 08:58:53;;;;;;;;;;;;;;;23.90;43.05;101541.44;5052489;28;19913;-72
2023/06/09 09:01:18;;;;;;;;;;;;;;;23.90;43.13;101538.72;5063033;28;19920;-72
2023/06/09 09:03:44;;;;;;;;;;;;;;;23.90;42.96;101536.84;5061283;28;19913;-72
2023/06/09 09:06:09;;;;;;;;;;;;;;;23.91;43.05;101545.84;5050664;28;19962;-71
2023/06/09 09:08:34;;;;;;;;;;;;;;;23.90;43.04;101539.56;5045344;28;19939;-71
2023/06/09 09:10:59;;;;;;;;;;;;;;;23.91;42.88;101534.97;5058951;28;19992;-72
2023/06/09 09:13:29;;;;;;;;;;;;;;;23.91;43.17;101538.53;5066035;28;19970;-72
2023/06/09 09:15:54;;;;;;;;;;;;;;;23.91;43.08;101537.69;5062375;28;19924;-72
2023/06/09 09:18:19;;;;;;;;;;;;;;;23.91;43.07;101535.81;5054734;28;19917;-72
2023/06/09 09:20:45;;;;;;;;;;;;;;;23.93;43.07;101541.06;5074310;28;19926;-71
2023/06/09 09:23:10;;;;;;;;;;;;;;;23.92;43.10;101545.66;5057921;28;19920;-72
2023/06/09 09:25:35;;;;;;;;;;;;;;;23.92;43.18;101544.81;5062584;28;19983;-72
2023/06/09 09:28:10;;;;;;;;;;;;;;;23.93;43.43;101547.34;5066535;28;20031;-72
2023/06/09 09:30:42;;;;;;;;;;;;;;;23.93;43.19;101538.34;5057703;28;19951;-72
2023/06/09 09:33:11;;;;;;;;;;;;;;;23.94;43.34;101538.16;5049265;28;19944;-72
2023/06/09 09:35:40;;;;;;;;;;;;;;;23.94;43.16;101532.72;5046113;28;19959;-72
2023/06/09 09:38:10;;;;;;;;;;;;;;;23.95;43.63;101537.13;5045273;28;19924;-72
2023/06/09 09:40:39;;;;;;;;;;;;;;;23.95;43.58;101537.13;5047266;28;19917;-72
2023/06/09 09:43:05;;;;;;;;;;;;;;;23.97;43.51;101538.84;5055768;28;20435;-72
2023/06/09 09:45:37;;;;;;;;;;;;;;;23.96;43.39;101535.28;5048105;28;19917;-72
2023/06/09 09:48:10;;;;;;;;;;;;;;;23.97;43.53;101536.13;5079831;28;20000;-72
2023/06/09 09:50:36;;;;;;;;;;;;;;;23.97;43.50;101534.25;5060865;28;19919;-72
2023/06/09 09:53:02;;;;;;;;;;;;;;;23.98;43.84;101529.66;5051353;28;19936;-72
2023/06/09 09:55:28;;;;;;;;;;;;;;;23.98;43.51;101533.19;5056567;28;20316;-72
2023/06/09 09:57:53;;;;;;;;;;;;;;;23.99;43.75;101529.44;5060553;28;19913;-72
2023/06/09 10:00:19;;;;;;;;;;;;;;;23.99;43.51;101526.72;5054654;28;20415;-73
2023/06/09 10:02:44;;;;;;;;;;;;;;;23.99;43.82;101532.16;5046940;28;19916;-71
2023/06/09 10:05:10;;;;;;;;;;;;;;;24.00;43.61;101531.16;5046316;28;19994;-72
2023/06/09 10:07:38;;;;;;;;;;;;;;;24.00;44.03;101524.84;5067957;28;19920;-72
2023/06/09 10:10:03;;;;;;;;;;;;;;;24.01;43.60;101523.84;5070964;28;19917;-72
2023/06/09 10:12:28;;;;;;;;;;;;;;;24.01;43.76;101521.13;5040622;28;19913;-72
2023/06/09 10:14:53;;;;;;;;;;;;;;;24.02;43.65;101518.22;5055666;28;19931;-72
2023/06/09 10:17:20;;;;;;;;;;;;;;;24.02;43.69;101515.50;5063438;28;19944;-72
2023/06/09 10:19:46;;;;;;;;;;;;;;;24.03;43.80;101516.34;5046399;28;20284;-72
2023/06/09 10:22:11;;;;;;;;;;;;;;;24.04;43.86;101513.41;5069532;28;19916;-73
2023/06/09 10:24:36;;;;;;;;;;;;;;;24.04;43.91;101510.72;5059626;28;19917;-72
2023/06/09 10:27:02;;;;;;;;;;;;;;;24.06;43.77;101507.81;5053623;28;19912;-72
2023/06/09 10:29:27;;;;;;;;;;;;;;;24.07;44.03;101506.78;5046257;28;19917;-72
2023/06/09 10:31:52;;;;;;;;;;;;;;;24.07;43.99;101507.63;5050088;28;19948;-72
2023/06/09 10:34:17;;;;;;;;;;;;;;;24.08;43.87;101509.31;5064980;28;20099;-72
2023/06/09 10:36:43;;;;;;;;;;;;;;;24.09;43.77;101508.28;5050208;28;20397;-72
2023/06/09 10:39:15;;;;;;;;;;;;;;;24.10;43.83;101509.97;5058134;28;20294;-72
2023/06/09 10:41:40;;;;;;;;;;;;;;;24.11;44.05;101498.06;5067989;28;19918;-72
2023/06/09 10:44:24;;;;;;;;;;;;;;;24.13;44.06;101500.59;5064438;28;19917;-72
2023/06/09 10:46:50;;;;;;;;;;;;;;;24.15;43.88;101501.25;5060345;28;19959;-72
2023/06/09 10:49:39;;;;;;;;;;;;;;;24.15;43.87;101499.38;5072263;28;19935;-71
2023/06/09 10:52:05;;;;;;;;;;;;;;;24.17;44.15;101500.03;5057836;28;19913;-72
2023/06/09 10:54:32;;;;;;;;;;;;;;;24.19;44.02;101499.84;5072894;28;19919;-72
2023/06/09 10:56:57;;;;;;;;;;;;;;;24.21;43.90;101500.47;5043979;28;19919;-72
2023/06/09 10:59:25;;;;;;;;;;;;;;;24.23;43.89;101495.72;5064692;28;19963;-72
2023/06/09 11:02:02;;;;;;;;;;;;;;;24.24;43.76;101486.53;5068950;28;19981;-72
2023/06/09 11:04:45;;;;;;;;;;;;;;;24.26;43.98;101483.63;5067081;28;20327;-72
2023/06/09 11:07:12;;;;;;;;;;;;;;;24.28;43.97;101476.97;5062199;28;20002;-72
2023/06/09 11:09:38;;;;;;;;;;;;;;;24.31;44.09;101481.19;5070163;28;19912;-71
2023/06/09 11:12:03;;;;;;;;;;;;;;;24.32;44.01;101480.13;5059951;28;20011;-72
2023/06/09 11:14:44;;;;;;;;;;;;;;;24.34;43.92;101480.78;5064796;28;19970;-71
2023/06/09 11:17:16;;;;;;;;;;;;;;;24.36;43.81;101481.44;5066083;28;19971;-73
2023/06/09 11:19:41;;;;;;;;;;;;;;;24.38;43.94;101468.53;5037636;28;19917;-73
2023/06/09 11:22:08;;;;;;;;;;;;;;;24.40;43.95;101469.19;5055247;28;19917;-72
2023/06/09 11:24:49;;;;;;;;;;;;;;;24.41;43.98;101471.72;5057841;28;19913;-72
2023/06/09 11:27:24;;;;;;;;;;;;;;;24.44;44.02;101470.50;5067764;28;19917;-72
2023/06/09 11:30:08;;;;;;;;;;;;;;;24.46;43.90;101462.97;5045825;28;19916;-73
2023/06/09 11:32:46;;;;;;;;;;;;;;;24.48;43.83;101462.81;5063067;28;19942;-72
2023/06/09 11:35:31;;;;;;;;;;;;;;;24.50;43.91;101464.28;5062738;28;19917;-72
2023/06/09 11:37:56;;;;;;;;;;;;;;;24.52;43.97;101453.22;5065844;28;19913;-72
2023/06/09 11:40:22;;;;;;;;;;;;;;;24.54;44.04;101448.41;5053763;28;19966;-72
2023/06/09 11:42:47;;;;;;;;;;;;;;;24.55;44.03;101448.25;5055787;28;19916;-72
2023/06/09 11:45:13;;;;;;;;;;;;;;;24.57;43.89;101450.75;5061790;28;20312;-73
2023/06/09 11:47:41;;;;;;;;;;;;;;;24.59;43.92;101446.78;5045754;28;20329;-72
2023/06/09 11:50:11;;;;;;;;;;;;;;;24.61;43.92;101447.47;5069276;28;19921;-72
2023/06/09 11:52:36;;;;;;;;;;;;;;;24.63;43.88;101437.22;5059247;28;19921;-73
2023/06/09 11:55:03;;;;;;;;;;;;;;;24.65;44.08;101437.88;5066671;28;19912;-72
2023/06/09 11:57:29;;;;;;;;;;;;;;;24.66;44.10;101430.56;5061072;28;19952;-73
2023/06/09 11:59:54;;;;;;;;;;;;;;;24.68;43.94;101439.38;5049441;28;19917;-72
2023/06/09 12:02:20;;;;;;;;;;;;;;;24.69;44.00;101430.19;5051745;28;20372;-71
2023/06/09 12:04:47;;;;;;;;;;;;;;;24.70;44.11;101434.59;5050087;28;19916;-72
2023/06/09 12:07:16;;;;;;;;;;;;;;;24.72;44.06;101432.50;5054109;28;19959;-72
2023/06/09 12:09:42;;;;;;;;;;;;;;;24.74;44.02;101427.72;5049810;28;19923;-72
2023/06/09 12:12:07;;;;;;;;;;;;;;;24.76;44.02;101431.06;5065396;28;19916;-72
2023/06/09 12:14:33;;;;;;;;;;;;;;;24.78;43.96;101425.47;5057702;28;19931;-72
2023/06/09 12:16:58;;;;;;;;;;;;;;;24.81;44.23;101427.78;5071467;28;19921;-72
2023/06/09 12:19:25;;;;;;;;;;;;;;;24.83;43.98;101420.25;5040124;28;20136;-72
2023/06/09 12:21:50;;;;;;;;;;;;;;;24.84;44.13;101420.06;5068076;28;19921;-72
2023/06/09 12:24:15;;;;;;;;;;;;;;;24.86;44.15;101420.72;5062415;28;19936;-72
2023/06/09 12:26:42;;;;;;;;;;;;;;;24.89;43.97;101424.91;5063220;28;19916;-72
2023/06/09 12:29:07;;;;;;;;;;;;;;;24.91;44.02;101425.56;5044908;28;19924;-72
2023/06/09 12:31:33;;;;;;;;;;;;;;;24.93;44.02;101420.75;5066832;28;19912;-72